»·PEaware :: AAL3983 KSAN-KSMF

AAL3983 :: KSAN-KSMF

FLIGHT INFORMATION

Flight Status: Arrived
Operator:
American Airlines
More flights by this operator :: More flights under this callsign
Pilot: Dave P. (45)
Aircraft: BOEING 737-700
(B737)
More flights by this aircraft type
Origin: KSAN San Diego Intl-Lindbergh
United States
Destination: KSMF Sacramento Intl
United States
More flights between these airports :: More routes between these airports
Route: PADRZ2 EHF NURAY SUUTR2
File this flight plan on PilotEdge
Remarks: PBN / A1B1C1D1S1S2 DOF / 180429 REG / N737PM EET / KZOA0038 OPR / AAL PER / C RMK / TCAS SIMBRIEF
Altitude:
(Current/Filed)
34,000ft
Speed:
(Current/Filed)
457kts
Departed: 29-Apr-18 09:52 AM
Arrived: 29-Apr-18 11:09 AM
Distance/Time
Traveled:
417nm/1:16
Distance/Time
To Go:
Arrived

Flight Plot

Page will automatically refresh every two minutes.

Flight plan parsing failed; only flown route is shown


Map Options




Map Legend


Flown Route
Filed Route
Departure Airport
Arrival Airport
Navaid (VOR, NDB)
Fix

Horizontal Profiles

Position Reports

Time Latitude Longitude Heading Altitude Ground
Speed
29-Apr-18 09:13 32.734507 -117.203490 230 23ft 0kts
29-Apr-18 09:14 32.734507 -117.203490 230 23ft 0kts
29-Apr-18 09:15 32.734507 -117.203490 230 23ft 0kts
29-Apr-18 09:16 32.734507 -117.203490 230 23ft 0kts
29-Apr-18 09:17 32.734507 -117.203490 230 23ft 0kts
29-Apr-18 09:18 32.734507 -117.203490 230 23ft 0kts
29-Apr-18 09:19 32.734507 -117.203490 230 23ft 0kts
29-Apr-18 09:20 32.734507 -117.203490 230 23ft 0kts
29-Apr-18 09:21 32.734507 -117.203490 230 23ft 0kts
29-Apr-18 09:22 32.734507 -117.203490 230 23ft 0kts
29-Apr-18 09:24 32.734507 -117.203490 230 23ft 0kts
29-Apr-18 09:25 32.734507 -117.203490 230 23ft 0kts
29-Apr-18 09:26 32.734507 -117.203490 230 23ft 0kts
29-Apr-18 09:26 32.734507 -117.203490 230 23ft 0kts
29-Apr-18 09:27 32.734507 -117.203490 230 23ft 0kts
29-Apr-18 09:28 32.734507 -117.203490 230 23ft 0kts
29-Apr-18 09:29 32.734507 -117.203490 230 23ft 0kts
29-Apr-18 09:30 32.734507 -117.203490 230 23ft 0kts
29-Apr-18 09:31 32.734507 -117.203490 230 23ft 0kts
29-Apr-18 09:32 32.734507 -117.203490 230 23ft 0kts
29-Apr-18 09:34 32.734507 -117.203490 230 23ft 0kts
29-Apr-18 09:34 32.734507 -117.203490 230 23ft 0kts
29-Apr-18 09:35 32.734507 -117.203490 230 23ft 0kts
29-Apr-18 09:36 32.734507 -117.203490 230 23ft 0kts
29-Apr-18 09:37 32.734507 -117.203490 230 23ft 0kts
29-Apr-18 09:38 32.734742 -117.203260 201 22ft 2kts
29-Apr-18 09:39 32.734891 -117.203218 185 22ft 0kts
29-Apr-18 09:40 32.734890 -117.203218 185 22ft 0kts
29-Apr-18 09:41 32.734804 -117.203081 81 22ft 4kts
29-Apr-18 09:42 32.734930 -117.202852 59 22ft 0kts
29-Apr-18 09:43 32.735000 -117.202712 59 22ft 0kts
29-Apr-18 09:44 32.735253 -117.202336 42 22ft 12kts
29-Apr-18 09:45 32.734617 -117.198337 105 22ft 13kts
29-Apr-18 09:46 32.733207 -117.192508 105 22ft 20kts
29-Apr-18 09:47 32.731879 -117.187009 105 23ft 18kts
29-Apr-18 09:48 32.730359 -117.180707 106 22ft 16kts
29-Apr-18 09:49 32.729502 -117.176817 72 22ft 8kts
29-Apr-18 09:50 32.730273 -117.176075 284 22ft 0kts
29-Apr-18 09:51 32.731069 -117.179422 286 23ft 70kts
29-Apr-18 09:52 32.744692 -117.222939 299 1595ft 161kts
29-Apr-18 09:53 32.775159 -117.276076 302 3390ft 232kts
29-Apr-18 09:54 32.815899 -117.344104 307 6857ft 262kts
29-Apr-18 09:55 32.861626 -117.414468 306 10518ft 274kts
29-Apr-18 09:56 32.912754 -117.493915 305 12577ft 334kts
29-Apr-18 09:57 32.970745 -117.584097 305 14928ft 347kts
29-Apr-18 09:58 33.029433 -117.675893 304 16101ft 351kts
29-Apr-18 09:59 33.096452 -117.763110 315 19181ft 369kts
29-Apr-18 10:00 33.176514 -117.844195 315 21827ft 384kts
29-Apr-18 10:01 33.260641 -117.927139 315 24058ft 400kts
29-Apr-18 10:02 33.347776 -118.012090 316 26198ft 408kts
29-Apr-18 10:03 33.436716 -118.099089 316 28102ft 415kts
29-Apr-18 10:04 33.526687 -118.187639 317 29786ft 421kts
29-Apr-18 10:05 33.623608 -118.262114 330 32062ft 413kts
29-Apr-18 10:06 33.726561 -118.319137 330 33990ft 404kts
29-Apr-18 10:07 33.830198 -118.373034 332 34086ft 403kts
29-Apr-18 10:08 33.933884 -118.425269 332 34080ft 403kts
29-Apr-18 10:09 34.041586 -118.464861 345 34079ft 412kts
29-Apr-18 10:10 34.155301 -118.483062 345 34069ft 413kts
29-Apr-18 10:11 34.269379 -118.500821 345 34062ft 412kts
29-Apr-18 10:12 34.383255 -118.518431 345 34067ft 412kts
29-Apr-18 10:13 34.496994 -118.535968 344 34084ft 415kts
29-Apr-18 10:14 34.613031 -118.553997 344 34082ft 420kts
29-Apr-18 10:15 34.728701 -118.571974 344 34088ft 420kts
29-Apr-18 10:16 34.844736 -118.590078 344 34092ft 419kts
29-Apr-18 10:17 34.960395 -118.608203 343 34093ft 420kts
29-Apr-18 10:18 35.059010 -118.666959 316 34097ft 390kts
29-Apr-18 10:19 35.143677 -118.750213 314 34101ft 389kts
29-Apr-18 10:20 35.226876 -118.834295 314 34116ft 388kts
29-Apr-18 10:21 35.309848 -118.918238 313 34133ft 387kts
29-Apr-18 10:22 35.392439 -119.002701 313 34147ft 385kts
29-Apr-18 10:23 35.475524 -119.085312 319 34150ft 389kts
29-Apr-18 10:24 35.574080 -119.144333 327 34149ft 396kts
29-Apr-18 10:25 35.674795 -119.199187 327 34150ft 394kts
29-Apr-18 10:26 35.774946 -119.253481 327 34150ft 393kts
29-Apr-18 10:27 35.874947 -119.307451 327 34151ft 392kts
29-Apr-18 10:28 35.974968 -119.361598 327 34153ft 391kts
29-Apr-18 10:29 36.074517 -119.415679 326 34155ft 391kts
29-Apr-18 10:30 36.173998 -119.469889 326 34154ft 391kts
29-Apr-18 10:31 36.273376 -119.524201 326 34155ft 389kts
29-Apr-18 10:32 36.372534 -119.578405 326 34158ft 390kts
29-Apr-18 10:33 36.472130 -119.633195 326 34154ft 391kts
29-Apr-18 10:34 36.571640 -119.688112 326 34147ft 392kts
29-Apr-18 10:35 36.676114 -119.733097 333 34141ft 401kts
29-Apr-18 10:36 36.782853 -119.774011 333 34140ft 402kts
29-Apr-18 10:37 36.890392 -119.815643 333 34140ft 405kts
29-Apr-18 10:38 36.998343 -119.857472 333 34142ft 406kts
29-Apr-18 10:39 37.106252 -119.899461 333 34142ft 407kts
29-Apr-18 10:40 37.214511 -119.941774 333 34140ft 408kts
29-Apr-18 10:41 37.323413 -119.984487 333 34139ft 409kts
29-Apr-18 10:42 37.431852 -120.027157 333 34132ft 407kts
29-Apr-18 10:43 37.540268 -120.069951 333 34127ft 409kts
29-Apr-18 10:44 37.649320 -120.113150 333 34132ft 410kts
29-Apr-18 10:45 37.751280 -120.168669 302 34145ft 385kts
29-Apr-18 10:46 37.757052 -120.296559 265 32037ft 380kts
29-Apr-18 10:47 37.744448 -120.432212 266 26405ft 403kts
29-Apr-18 10:48 37.746361 -120.572181 270 21520ft 389kts
29-Apr-18 10:49 37.776633 -120.690987 314 19046ft 351kts
29-Apr-18 10:50 37.846307 -120.770248 316 16993ft 335kts
29-Apr-18 10:51 37.918812 -120.845229 317 15601ft 335kts
29-Apr-18 10:52 37.991115 -120.919118 318 14236ft 331kts
29-Apr-18 10:53 38.062463 -120.991969 318 12886ft 322kts
29-Apr-18 10:54 38.119436 -121.069706 308 11632ft 275kts
29-Apr-18 10:55 38.167692 -121.141556 309 10564ft 264kts
29-Apr-18 10:56 38.215278 -121.212319 308 9488ft 263kts
29-Apr-18 10:57 38.264100 -121.281237 311 8418ft 260kts
29-Apr-18 10:58 38.312530 -121.348505 311 7357ft 249kts
29-Apr-18 10:59 38.356512 -121.410273 311 6383ft 218kts
29-Apr-18 11:00 38.397003 -121.466848 311 5178ft 214kts
29-Apr-18 11:01 38.436267 -121.521001 311 4291ft 190kts
29-Apr-18 11:02 38.472233 -121.570000 311 3393ft 188kts
29-Apr-18 11:03 38.513412 -121.602739 350 3322ft 175kts
29-Apr-18 11:04 38.560061 -121.603480 357 2437ft 164kts
29-Apr-18 11:05 38.605521 -121.602769 359 1558ft 158kts
29-Apr-18 11:06 38.646215 -121.602096 359 777ft 137kts
29-Apr-18 11:07 38.684069 -121.601512 0 61ft 135kts
29-Apr-18 11:08 38.697381 -121.599555 91 36ft 16kts
29-Apr-18 11:09 38.697306 -121.594413 90 36ft 13kts
29-Apr-18 11:10 38.697014 -121.591032 181 36ft 6kts
29-Apr-18 11:11 38.696396 -121.591067 181 36ft 0kts
29-Apr-18 11:12 38.696396 -121.591067 181 36ft 0kts
29-Apr-18 11:13 38.696396 -121.591067 181 36ft 0kts
29-Apr-18 11:14 38.696396 -121.591067 181 36ft 0kts

Navigation Log

Ident Type
Flight plan parsing failed, navigation log unavailable